sensor_id;sensor_type;location;lat;lon;timestamp;P1;durP1;ratioP1;P2;durP2;ratioP2
13122;SDS011;6627;50.920;12.050;2022-11-15T00:01:14;23.83;;;17.53;;
13122;SDS011;6627;50.920;12.050;2022-11-15T00:03:44;26.87;;;19.10;;
13122;SDS011;6627;50.920;12.050;2022-11-15T00:06:11;23.97;;;18.03;;
13122;SDS011;6627;50.920;12.050;2022-11-15T00:08:40;21.20;;;15.30;;
13122;SDS011;6627;50.920;12.050;2022-11-15T00:11:08;20.43;;;16.83;;
13122;SDS011;6627;50.920;12.050;2022-11-15T00:13:38;19.07;;;14.93;;
13122;SDS011;6627;50.920;12.050;2022-11-15T00:16:05;17.50;;;14.67;;
13122;SDS011;6627;50.920;12.050;2022-11-15T00:18:34;21.57;;;14.90;;
13122;SDS011;6627;50.920;12.050;2022-11-15T00:21:05;20.83;;;15.40;;
13122;SDS011;6627;50.920;12.050;2022-11-15T00:23:35;19.50;;;14.67;;
13122;SDS011;6627;50.920;12.050;2022-11-15T00:26:05;19.43;;;14.93;;
13122;SDS011;6627;50.920;12.050;2022-11-15T00:28:33;20.27;;;14.83;;
13122;SDS011;6627;50.920;12.050;2022-11-15T00:31:00;21.37;;;14.83;;
13122;SDS011;6627;50.920;12.050;2022-11-15T00:33:28;21.83;;;16.20;;
13122;SDS011;6627;50.920;12.050;2022-11-15T00:36:00;19.43;;;15.50;;
13122;SDS011;6627;50.920;12.050;2022-11-15T00:38:32;23.77;;;15.70;;
13122;SDS011;6627;50.920;12.050;2022-11-15T00:41:02;19.03;;;15.17;;
13122;SDS011;6627;50.920;12.050;2022-11-15T00:43:32;19.37;;;15.50;;
13122;SDS011;6627;50.920;12.050;2022-11-15T00:45:59;18.47;;;14.70;;
13122;SDS011;6627;50.920;12.050;2022-11-15T00:48:27;17.87;;;14.40;;
13122;SDS011;6627;50.920;12.050;2022-11-15T00:50:55;17.77;;;14.80;;
13122;SDS011;6627;50.920;12.050;2022-11-15T00:53:22;19.13;;;14.47;;
13122;SDS011;6627;50.920;12.050;2022-11-15T00:55:50;19.40;;;14.60;;
13122;SDS011;6627;50.920;12.050;2022-11-15T00:58:18;19.90;;;14.90;;
13122;SDS011;6627;50.920;12.050;2022-11-15T01:00:45;16.20;;;13.37;;
13122;SDS011;6627;50.920;12.050;2022-11-15T01:03:13;18.63;;;14.90;;
13122;SDS011;6627;50.920;12.050;2022-11-15T01:05:40;19.43;;;14.90;;
13122;SDS011;6627;50.920;12.050;2022-11-15T01:08:11;22.27;;;16.30;;
13122;SDS011;6627;50.920;12.050;2022-11-15T01:10:40;19.03;;;15.30;;
13122;SDS011;6627;50.920;12.050;2022-11-15T01:13:07;17.90;;;14.17;;
13122;SDS011;6627;50.920;12.050;2022-11-15T01:15:39;20.27;;;15.20;;
13122;SDS011;6627;50.920;12.050;2022-11-15T01:18:08;20.50;;;15.17;;
13122;SDS011;6627;50.920;12.050;2022-11-15T01:20:38;20.03;;;14.93;;
13122;SDS011;6627;50.920;12.050;2022-11-15T01:23:07;20.40;;;15.40;;
13122;SDS011;6627;50.920;12.050;2022-11-15T01:25:35;20.13;;;15.87;;
13122;SDS011;6627;50.920;12.050;2022-11-15T01:28:04;19.73;;;14.60;;
13122;SDS011;6627;50.920;12.050;2022-11-15T01:30:32;20.33;;;14.70;;
13122;SDS011;6627;50.920;12.050;2022-11-15T01:33:01;20.87;;;15.10;;
13122;SDS011;6627;50.920;12.050;2022-11-15T01:35:28;20.00;;;14.63;;
13122;SDS011;6627;50.920;12.050;2022-11-15T01:37:56;20.80;;;15.50;;
13122;SDS011;6627;50.920;12.050;2022-11-15T01:40:23;19.60;;;15.50;;
13122;SDS011;6627;50.920;12.050;2022-11-15T01:42:51;20.90;;;15.80;;
13122;SDS011;6627;50.920;12.050;2022-11-15T01:45:18;20.00;;;15.17;;
13122;SDS011;6627;50.920;12.050;2022-11-15T01:47:46;22.03;;;15.80;;
13122;SDS011;6627;50.920;12.050;2022-11-15T01:50:23;20.17;;;16.53;;
13122;SDS011;6627;50.920;12.050;2022-11-15T01:52:55;21.00;;;16.03;;
13122;SDS011;6627;50.920;12.050;2022-11-15T01:55:23;22.40;;;16.60;;
13122;SDS011;6627;50.920;12.050;2022-11-15T01:57:55;23.23;;;16.30;;
13122;SDS011;6627;50.920;12.050;2022-11-15T02:00:27;21.53;;;15.20;;
13122;SDS011;6627;50.920;12.050;2022-11-15T02:02:57;19.17;;;14.30;;
13122;SDS011;6627;50.920;12.050;2022-11-15T02:05:26;22.77;;;15.20;;
13122;SDS011;6627;50.920;12.050;2022-11-15T02:07:54;21.60;;;15.90;;
13122;SDS011;6627;50.920;12.050;2022-11-15T02:10:22;21.53;;;15.17;;
13122;SDS011;6627;50.920;12.050;2022-11-15T02:12:51;21.73;;;15.27;;
13122;SDS011;6627;50.920;12.050;2022-11-15T02:15:21;18.63;;;14.43;;
13122;SDS011;6627;50.920;12.050;2022-11-15T02:17:59;21.03;;;15.63;;
13122;SDS011;6627;50.920;12.050;2022-11-15T02:20:43;22.00;;;15.47;;
13122;SDS011;6627;50.920;12.050;2022-11-15T02:23:31;20.37;;;14.83;;
13122;SDS011;6627;50.920;12.050;2022-11-15T02:26:28;20.47;;;15.07;;
13122;SDS011;6627;50.920;12.050;2022-11-15T02:29:26;18.50;;;14.57;;
13122;SDS011;6627;50.920;12.050;2022-11-15T02:32:17;18.17;;;14.20;;
13122;SDS011;6627;50.920;12.050;2022-11-15T02:34:57;19.80;;;14.60;;
13122;SDS011;6627;50.920;12.050;2022-11-15T02:37:37;20.80;;;14.63;;
13122;SDS011;6627;50.920;12.050;2022-11-15T02:40:16;19.13;;;14.27;;
13122;SDS011;6627;50.920;12.050;2022-11-15T02:42:53;21.37;;;15.47;;
13122;SDS011;6627;50.920;12.050;2022-11-15T02:45:44;22.20;;;15.77;;
13122;SDS011;6627;50.920;12.050;2022-11-15T02:48:19;21.30;;;14.43;;
13122;SDS011;6627;50.920;12.050;2022-11-15T02:50:48;18.43;;;14.83;;
13122;SDS011;6627;50.920;12.050;2022-11-15T02:53:18;19.70;;;14.43;;
13122;SDS011;6627;50.920;12.050;2022-11-15T02:55:50;20.10;;;14.53;;
13122;SDS011;6627;50.920;12.050;2022-11-15T02:58:36;19.03;;;14.67;;
13122;SDS011;6627;50.920;12.050;2022-11-15T03:01:31;19.20;;;14.53;;
13122;SDS011;6627;50.920;12.050;2022-11-15T03:04:14;19.47;;;13.97;;
13122;SDS011;6627;50.920;12.050;2022-11-15T03:06:57;17.80;;;14.43;;
13122;SDS011;6627;50.920;12.050;2022-11-15T03:09:39;19.80;;;14.47;;
13122;SDS011;6627;50.920;12.050;2022-11-15T03:12:19;22.23;;;14.70;;
13122;SDS011;6627;50.920;12.050;2022-11-15T03:14:57;18.73;;;13.93;;
13122;SDS011;6627;50.920;12.050;2022-11-15T03:17:33;19.13;;;14.53;;
13122;SDS011;6627;50.920;12.050;2022-11-15T03:20:09;18.07;;;13.70;;
13122;SDS011;6627;50.920;12.050;2022-11-15T03:22:40;18.77;;;13.83;;
13122;SDS011;6627;50.920;12.050;2022-11-15T03:25:13;17.87;;;13.67;;
13122;SDS011;6627;50.920;12.050;2022-11-15T03:27:48;19.57;;;14.20;;
13122;SDS011;6627;50.920;12.050;2022-11-15T03:30:20;22.13;;;14.27;;
13122;SDS011;6627;50.920;12.050;2022-11-15T03:32:49;19.27;;;14.03;;
13122;SDS011;6627;50.920;12.050;2022-11-15T03:35:23;19.57;;;14.67;;
13122;SDS011;6627;50.920;12.050;2022-11-15T03:37:54;18.20;;;14.80;;
13122;SDS011;6627;50.920;12.050;2022-11-15T03:40:30;16.80;;;13.70;;
13122;SDS011;6627;50.920;12.050;2022-11-15T03:43:07;15.97;;;13.07;;
13122;SDS011;6627;50.920;12.050;2022-11-15T03:45:46;18.67;;;13.60;;
13122;SDS011;6627;50.920;12.050;2022-11-15T03:48:21;15.03;;;12.27;;
13122;SDS011;6627;50.920;12.050;2022-11-15T03:50:56;18.23;;;13.10;;
13122;SDS011;6627;50.920;12.050;2022-11-15T03:53:24;16.63;;;13.60;;
13122;SDS011;6627;50.920;12.050;2022-11-15T03:55:51;17.77;;;13.67;;
13122;SDS011;6627;50.920;12.050;2022-11-15T03:58:19;18.47;;;13.57;;
13122;SDS011;6627;50.920;12.050;2022-11-15T04:00:46;19.63;;;14.43;;
13122;SDS011;6627;50.920;12.050;2022-11-15T04:03:13;18.60;;;14.00;;
13122;SDS011;6627;50.920;12.050;2022-11-15T04:05:41;19.80;;;13.23;;
13122;SDS011;6627;50.920;12.050;2022-11-15T04:08:10;18.27;;;13.80;;
13122;SDS011;6627;50.920;12.050;2022-11-15T04:10:37;20.77;;;14.30;;
13122;SDS011;6627;50.920;12.050;2022-11-15T04:13:04;18.33;;;14.50;;
13122;SDS011;6627;50.920;12.050;2022-11-15T04:15:32;19.37;;;14.37;;
13122;SDS011;6627;50.920;12.050;2022-11-15T04:17:59;17.27;;;13.87;;
13122;SDS011;6627;50.920;12.050;2022-11-15T04:20:27;19.80;;;14.90;;
13122;SDS011;6627;50.920;12.050;2022-11-15T04:23:15;16.87;;;13.20;;
13122;SDS011;6627;50.920;12.050;2022-11-15T04:26:03;17.87;;;13.70;;
13122;SDS011;6627;50.920;12.050;2022-11-15T04:28:35;16.87;;;13.27;;
13122;SDS011;6627;50.920;12.050;2022-11-15T04:31:23;17.43;;;13.47;;
13122;SDS011;6627;50.920;12.050;2022-11-15T04:33:51;15.90;;;12.67;;
13122;SDS011;6627;50.920;12.050;2022-11-15T04:36:18;17.40;;;13.50;;
13122;SDS011;6627;50.920;12.050;2022-11-15T04:39:05;17.77;;;13.33;;
13122;SDS011;6627;50.920;12.050;2022-11-15T04:41:33;19.80;;;14.10;;
13122;SDS011;6627;50.920;12.050;2022-11-15T04:44:01;19.53;;;14.37;;
13122;SDS011;6627;50.920;12.050;2022-11-15T04:46:28;18.20;;;14.50;;
13122;SDS011;6627;50.920;12.050;2022-11-15T04:48:55;20.67;;;14.30;;
13122;SDS011;6627;50.920;12.050;2022-11-15T04:51:23;20.97;;;14.83;;
13122;SDS011;6627;50.920;12.050;2022-11-15T04:53:50;20.13;;;14.93;;
13122;SDS011;6627;50.920;12.050;2022-11-15T04:56:19;18.47;;;14.07;;
13122;SDS011;6627;50.920;12.050;2022-11-15T04:58:48;16.57;;;13.37;;
13122;SDS011;6627;50.920;12.050;2022-11-15T05:01:15;20.30;;;14.33;;
13122;SDS011;6627;50.920;12.050;2022-11-15T05:03:43;18.77;;;13.60;;
13122;SDS011;6627;50.920;12.050;2022-11-15T05:06:28;21.00;;;13.63;;
13122;SDS011;6627;50.920;12.050;2022-11-15T05:08:55;19.73;;;13.17;;
13122;SDS011;6627;50.920;12.050;2022-11-15T05:11:24;18.63;;;14.43;;
13122;SDS011;6627;50.920;12.050;2022-11-15T05:13:52;19.83;;;15.23;;
13122;SDS011;6627;50.920;12.050;2022-11-15T05:16:20;18.43;;;13.40;;
13122;SDS011;6627;50.920;12.050;2022-11-15T05:18:50;20.33;;;14.93;;
13122;SDS011;6627;50.920;12.050;2022-11-15T05:21:18;18.40;;;13.30;;
13122;SDS011;6627;50.920;12.050;2022-11-15T05:23:46;17.97;;;14.17;;
13122;SDS011;6627;50.920;12.050;2022-11-15T05:26:16;20.20;;;13.90;;
13122;SDS011;6627;50.920;12.050;2022-11-15T05:28:46;19.17;;;14.73;;
13122;SDS011;6627;50.920;12.050;2022-11-15T05:31:19;19.87;;;13.87;;
13122;SDS011;6627;50.920;12.050;2022-11-15T05:33:46;18.57;;;14.03;;
13122;SDS011;6627;50.920;12.050;2022-11-15T05:36:17;18.60;;;13.60;;
13122;SDS011;6627;50.920;12.050;2022-11-15T05:38:53;16.83;;;13.53;;
13122;SDS011;6627;50.920;12.050;2022-11-15T05:41:22;19.37;;;13.63;;
13122;SDS011;6627;50.920;12.050;2022-11-15T05:43:57;17.57;;;13.70;;
13122;SDS011;6627;50.920;12.050;2022-11-15T05:46:26;18.20;;;13.20;;
13122;SDS011;6627;50.920;12.050;2022-11-15T05:48:54;20.10;;;13.87;;
13122;SDS011;6627;50.920;12.050;2022-11-15T05:51:23;17.33;;;14.00;;
13122;SDS011;6627;50.920;12.050;2022-11-15T05:53:53;19.27;;;13.43;;
13122;SDS011;6627;50.920;12.050;2022-11-15T05:56:24;19.20;;;13.80;;
13122;SDS011;6627;50.920;12.050;2022-11-15T05:58:52;21.80;;;13.60;;
13122;SDS011;6627;50.920;12.050;2022-11-15T06:01:24;17.47;;;13.13;;
13122;SDS011;6627;50.920;12.050;2022-11-15T06:03:53;17.83;;;13.10;;
13122;SDS011;6627;50.920;12.050;2022-11-15T06:06:21;15.70;;;12.37;;
13122;SDS011;6627;50.920;12.050;2022-11-15T06:08:48;16.07;;;12.80;;
13122;SDS011;6627;50.920;12.050;2022-11-15T06:11:15;15.80;;;12.43;;
13122;SDS011;6627;50.920;12.050;2022-11-15T06:13:43;18.27;;;12.87;;
13122;SDS011;6627;50.920;12.050;2022-11-15T06:16:11;17.80;;;12.10;;
13122;SDS011;6627;50.920;12.050;2022-11-15T06:18:39;17.50;;;12.90;;
13122;SDS011;6627;50.920;12.050;2022-11-15T06:21:07;16.47;;;12.33;;
13122;SDS011;6627;50.920;12.050;2022-11-15T06:23:35;15.17;;;12.33;;
13122;SDS011;6627;50.920;12.050;2022-11-15T06:26:02;15.97;;;12.07;;
13122;SDS011;6627;50.920;12.050;2022-11-15T06:28:31;17.37;;;11.93;;
13122;SDS011;6627;50.920;12.050;2022-11-15T06:31:01;15.20;;;11.93;;
13122;SDS011;6627;50.920;12.050;2022-11-15T06:33:31;15.23;;;11.77;;
13122;SDS011;6627;50.920;12.050;2022-11-15T06:36:00;15.73;;;11.90;;
13122;SDS011;6627;50.920;12.050;2022-11-15T06:38:28;15.70;;;11.50;;
13122;SDS011;6627;50.920;12.050;2022-11-15T06:41:00;15.57;;;11.03;;
13122;SDS011;6627;50.920;12.050;2022-11-15T06:43:29;15.57;;;11.40;;
13122;SDS011;6627;50.920;12.050;2022-11-15T06:45:57;14.57;;;10.93;;
13122;SDS011;6627;50.920;12.050;2022-11-15T06:48:25;13.30;;;11.07;;
13122;SDS011;6627;50.920;12.050;2022-11-15T06:50:54;16.67;;;11.43;;
13122;SDS011;6627;50.920;12.050;2022-11-15T06:53:24;14.23;;;11.33;;
13122;SDS011;6627;50.920;12.050;2022-11-15T06:55:52;16.60;;;11.47;;
13122;SDS011;6627;50.920;12.050;2022-11-15T06:58:20;17.10;;;11.47;;
13122;SDS011;6627;50.920;12.050;2022-11-15T07:00:47;16.17;;;11.20;;
13122;SDS011;6627;50.920;12.050;2022-11-15T07:03:15;13.97;;;11.90;;
13122;SDS011;6627;50.920;12.050;2022-11-15T07:05:49;16.33;;;11.80;;
13122;SDS011;6627;50.920;12.050;2022-11-15T07:08:23;15.60;;;12.03;;
13122;SDS011;6627;50.920;12.050;2022-11-15T07:10:54;14.53;;;11.77;;
13122;SDS011;6627;50.920;12.050;2022-11-15T07:13:24;17.07;;;11.97;;
13122;SDS011;6627;50.920;12.050;2022-11-15T07:15:52;15.60;;;11.87;;
13122;SDS011;6627;50.920;12.050;2022-11-15T07:18:19;14.60;;;11.93;;
13122;SDS011;6627;50.920;12.050;2022-11-15T07:20:47;14.43;;;11.60;;
13122;SDS011;6627;50.920;12.050;2022-11-15T07:23:14;13.27;;;11.20;;
13122;SDS011;6627;50.920;12.050;2022-11-15T07:25:43;14.60;;;11.70;;
13122;SDS011;6627;50.920;12.050;2022-11-15T07:28:10;14.63;;;10.90;;
13122;SDS011;6627;50.920;12.050;2022-11-15T07:30:37;13.77;;;10.97;;
13122;SDS011;6627;50.920;12.050;2022-11-15T07:33:04;17.53;;;11.77;;
13122;SDS011;6627;50.920;12.050;2022-11-15T07:35:32;14.00;;;11.50;;
13122;SDS011;6627;50.920;12.050;2022-11-15T07:38:01;13.67;;;11.10;;
13122;SDS011;6627;50.920;12.050;2022-11-15T07:40:29;14.77;;;11.40;;
13122;SDS011;6627;50.920;12.050;2022-11-15T07:43:01;14.40;;;10.70;;
13122;SDS011;6627;50.920;12.050;2022-11-15T07:45:31;17.40;;;11.60;;
13122;SDS011;6627;50.920;12.050;2022-11-15T07:48:00;12.10;;;10.40;;
13122;SDS011;6627;50.920;12.050;2022-11-15T07:50:28;14.00;;;10.73;;
13122;SDS011;6627;50.920;12.050;2022-11-15T07:52:56;13.47;;;10.17;;
13122;SDS011;6627;50.920;12.050;2022-11-15T07:55:26;14.40;;;11.10;;
13122;SDS011;6627;50.920;12.050;2022-11-15T07:58:00;14.13;;;10.97;;
13122;SDS011;6627;50.920;12.050;2022-11-15T08:00:29;14.67;;;9.90;;
13122;SDS011;6627;50.920;12.050;2022-11-15T08:03:02;13.80;;;9.77;;
13122;SDS011;6627;50.920;12.050;2022-11-15T08:05:32;13.37;;;10.07;;
13122;SDS011;6627;50.920;12.050;2022-11-15T08:08:01;12.67;;;9.93;;
13122;SDS011;6627;50.920;12.050;2022-11-15T08:10:29;12.60;;;9.87;;
13122;SDS011;6627;50.920;12.050;2022-11-15T08:12:58;13.77;;;9.37;;
13122;SDS011;6627;50.920;12.050;2022-11-15T08:15:28;12.13;;;9.27;;
13122;SDS011;6627;50.920;12.050;2022-11-15T08:17:57;10.83;;;9.17;;
13122;SDS011;6627;50.920;12.050;2022-11-15T08:20:27;12.00;;;9.43;;
13122;SDS011;6627;50.920;12.050;2022-11-15T08:22:56;11.30;;;9.63;;
13122;SDS011;6627;50.920;12.050;2022-11-15T08:25:26;10.20;;;9.10;;
13122;SDS011;6627;50.920;12.050;2022-11-15T08:27:56;10.90;;;9.47;;
13122;SDS011;6627;50.920;12.050;2022-11-15T08:30:27;12.27;;;9.10;;
13122;SDS011;6627;50.920;12.050;2022-11-15T08:32:56;10.90;;;8.37;;
13122;SDS011;6627;50.920;12.050;2022-11-15T08:35:24;11.40;;;8.50;;
13122;SDS011;6627;50.920;12.050;2022-11-15T08:37:52;9.20;;;8.07;;
13122;SDS011;6627;50.920;12.050;2022-11-15T08:40:20;10.53;;;8.00;;
13122;SDS011;6627;50.920;12.050;2022-11-15T08:42:48;9.33;;;8.30;;
13122;SDS011;6627;50.920;12.050;2022-11-15T08:45:15;11.07;;;8.07;;
13122;SDS011;6627;50.920;12.050;2022-11-15T08:47:45;11.23;;;9.13;;
13122;SDS011;6627;50.920;12.050;2022-11-15T08:50:12;10.50;;;8.03;;
13122;SDS011;6627;50.920;12.050;2022-11-15T08:52:40;9.27;;;8.03;;
13122;SDS011;6627;50.920;12.050;2022-11-15T08:55:07;10.90;;;8.43;;
13122;SDS011;6627;50.920;12.050;2022-11-15T08:57:35;11.20;;;9.50;;
13122;SDS011;6627;50.920;12.050;2022-11-15T09:00:02;15.23;;;12.10;;
13122;SDS011;6627;50.920;12.050;2022-11-15T09:02:32;39.83;;;24.97;;
13122;SDS011;6627;50.920;12.050;2022-11-15T09:05:00;22.30;;;14.60;;
13122;SDS011;6627;50.920;12.050;2022-11-15T09:07:28;11.23;;;8.70;;
13122;SDS011;6627;50.920;12.050;2022-11-15T09:09:56;11.17;;;8.47;;
13122;SDS011;6627;50.920;12.050;2022-11-15T09:12:24;14.80;;;7.40;;
13122;SDS011;6627;50.920;12.050;2022-11-15T09:14:53;9.30;;;6.73;;
13122;SDS011;6627;50.920;12.050;2022-11-15T09:17:20;10.77;;;6.57;;
13122;SDS011;6627;50.920;12.050;2022-11-15T09:19:48;12.10;;;6.40;;
13122;SDS011;6627;50.920;12.050;2022-11-15T09:22:17;9.37;;;6.20;;
13122;SDS011;6627;50.920;12.050;2022-11-15T09:24:46;9.87;;;7.67;;
13122;SDS011;6627;50.920;12.050;2022-11-15T09:27:14;10.73;;;8.63;;
13122;SDS011;6627;50.920;12.050;2022-11-15T09:29:41;8.40;;;7.50;;
13122;SDS011;6627;50.920;12.050;2022-11-15T09:32:08;9.07;;;6.87;;
13122;SDS011;6627;50.920;12.050;2022-11-15T09:34:36;9.03;;;6.40;;
13122;SDS011;6627;50.920;12.050;2022-11-15T09:37:04;6.97;;;6.13;;
13122;SDS011;6627;50.920;12.050;2022-11-15T09:39:34;8.10;;;6.80;;
13122;SDS011;6627;50.920;12.050;2022-11-15T09:42:06;9.00;;;6.63;;
13122;SDS011;6627;50.920;12.050;2022-11-15T09:44:55;7.97;;;6.30;;
13122;SDS011;6627;50.920;12.050;2022-11-15T09:50:36;11.73;;;8.00;;
13122;SDS011;6627;50.920;12.050;2022-11-15T09:53:11;8.87;;;6.63;;
13122;SDS011;6627;50.920;12.050;2022-11-15T09:55:51;6.00;;;5.23;;
13122;SDS011;6627;50.920;12.050;2022-11-15T09:58:29;5.57;;;5.00;;
13122;SDS011;6627;50.920;12.050;2022-11-15T10:01:12;6.20;;;5.60;;
13122;SDS011;6627;50.920;12.050;2022-11-15T10:04:00;7.53;;;5.53;;
13122;SDS011;6627;50.920;12.050;2022-11-15T10:06:28;7.17;;;5.07;;
13122;SDS011;6627;50.920;12.050;2022-11-15T10:08:58;7.53;;;5.10;;
13122;SDS011;6627;50.920;12.050;2022-11-15T10:11:35;8.30;;;6.47;;
13122;SDS011;6627;50.920;12.050;2022-11-15T10:14:04;8.90;;;6.57;;
13122;SDS011;6627;50.920;12.050;2022-11-15T10:20:07;9.43;;;7.50;;
13122;SDS011;6627;50.920;12.050;2022-11-15T10:22:45;6.33;;;5.00;;
13122;SDS011;6627;50.920;12.050;2022-11-15T10:25:16;7.20;;;5.37;;
13122;SDS011;6627;50.920;12.050;2022-11-15T10:27:52;5.13;;;4.50;;
13122;SDS011;6627;50.920;12.050;2022-11-15T10:30:22;9.03;;;5.47;;
13122;SDS011;6627;50.920;12.050;2022-11-15T10:32:57;6.83;;;4.60;;
13122;SDS011;6627;50.920;12.050;2022-11-15T10:35:36;7.63;;;4.30;;
13122;SDS011;6627;50.920;12.050;2022-11-15T10:38:04;8.73;;;4.90;;
13122;SDS011;6627;50.920;12.050;2022-11-15T10:40:34;10.43;;;4.00;;
13122;SDS011;6627;50.920;12.050;2022-11-15T10:43:06;6.83;;;5.20;;
13122;SDS011;6627;50.920;12.050;2022-11-15T10:45:43;7.63;;;5.07;;
13122;SDS011;6627;50.920;12.050;2022-11-15T10:48:19;5.77;;;4.60;;
13122;SDS011;6627;50.920;12.050;2022-11-15T10:50:52;5.67;;;3.83;;
13122;SDS011;6627;50.920;12.050;2022-11-15T10:53:31;5.03;;;3.57;;
13122;SDS011;6627;50.920;12.050;2022-11-15T10:56:12;5.13;;;4.10;;
13122;SDS011;6627;50.920;12.050;2022-11-15T10:58:50;7.73;;;4.23;;
13122;SDS011;6627;50.920;12.050;2022-11-15T11:01:22;4.00;;;3.60;;
13122;SDS011;6627;50.920;12.050;2022-11-15T11:03:57;5.27;;;3.37;;
13122;SDS011;6627;50.920;12.050;2022-11-15T11:06:27;6.83;;;3.73;;
13122;SDS011;6627;50.920;12.050;2022-11-15T11:08:58;5.33;;;4.17;;
13122;SDS011;6627;50.920;12.050;2022-11-15T11:11:43;6.80;;;3.57;;
13122;SDS011;6627;50.920;12.050;2022-11-15T11:14:19;4.53;;;3.60;;
13122;SDS011;6627;50.920;12.050;2022-11-15T11:16:50;5.73;;;3.67;;
13122;SDS011;6627;50.920;12.050;2022-11-15T11:19:31;5.70;;;3.87;;
13122;SDS011;6627;50.920;12.050;2022-11-15T11:22:16;3.80;;;3.37;;
13122;SDS011;6627;50.920;12.050;2022-11-15T11:24:58;7.57;;;4.40;;
13122;SDS011;6627;50.920;12.050;2022-11-15T11:27:45;3.93;;;3.53;;
13122;SDS011;6627;50.920;12.050;2022-11-15T11:30:34;4.20;;;3.60;;
13122;SDS011;6627;50.920;12.050;2022-11-15T11:33:17;4.83;;;3.43;;
13122;SDS011;6627;50.920;12.050;2022-11-15T11:35:57;5.40;;;3.80;;
13122;SDS011;6627;50.920;12.050;2022-11-15T11:38:50;8.17;;;3.40;;
13122;SDS011;6627;50.920;12.050;2022-11-15T11:41:46;6.47;;;3.50;;
13122;SDS011;6627;50.920;12.050;2022-11-15T11:44:24;6.53;;;3.37;;
13122;SDS011;6627;50.920;12.050;2022-11-15T11:47:03;5.43;;;3.30;;
13122;SDS011;6627;50.920;12.050;2022-11-15T11:49:39;6.50;;;3.37;;
13122;SDS011;6627;50.920;12.050;2022-11-15T11:52:14;6.40;;;3.30;;
13122;SDS011;6627;50.920;12.050;2022-11-15T11:54:51;6.90;;;3.70;;
13122;SDS011;6627;50.920;12.050;2022-11-15T11:57:29;7.00;;;3.30;;
13122;SDS011;6627;50.920;12.050;2022-11-15T12:00:13;7.97;;;3.23;;
13122;SDS011;6627;50.920;12.050;2022-11-15T12:02:49;4.53;;;3.07;;
13122;SDS011;6627;50.920;12.050;2022-11-15T12:05:30;7.83;;;3.37;;
13122;SDS011;6627;50.920;12.050;2022-11-15T12:08:09;5.27;;;3.40;;
13122;SDS011;6627;50.920;12.050;2022-11-15T12:10:57;7.30;;;3.70;;
13122;SDS011;6627;50.920;12.050;2022-11-15T12:13:35;7.33;;;3.30;;
13122;SDS011;6627;50.920;12.050;2022-11-15T12:16:06;9.70;;;3.80;;
13122;SDS011;6627;50.920;12.050;2022-11-15T12:18:44;3.83;;;3.30;;
13122;SDS011;6627;50.920;12.050;2022-11-15T12:21:16;4.70;;;2.80;;
13122;SDS011;6627;50.920;12.050;2022-11-15T12:23:57;3.50;;;3.00;;
13122;SDS011;6627;50.920;12.050;2022-11-15T12:26:32;4.27;;;3.13;;
13122;SDS011;6627;50.920;12.050;2022-11-15T12:29:05;9.83;;;3.00;;
13122;SDS011;6627;50.920;12.050;2022-11-15T12:31:43;4.17;;;2.80;;
13122;SDS011;6627;50.920;12.050;2022-11-15T12:34:36;3.80;;;3.00;;
13122;SDS011;6627;50.920;12.050;2022-11-15T12:40:21;5.20;;;3.13;;
13122;SDS011;6627;50.920;12.050;2022-11-15T12:43:02;4.57;;;2.93;;
13122;SDS011;6627;50.920;12.050;2022-11-15T12:46:04;5.47;;;3.07;;
13122;SDS011;6627;50.920;12.050;2022-11-15T12:54:50;4.17;;;2.90;;
13122;SDS011;6627;50.920;12.050;2022-11-15T12:57:33;7.40;;;3.20;;
13122;SDS011;6627;50.920;12.050;2022-11-15T13:03:23;6.40;;;2.73;;
13122;SDS011;6627;50.920;12.050;2022-11-15T13:05:59;6.60;;;3.13;;
13122;SDS011;6627;50.920;12.050;2022-11-15T13:08:48;8.53;;;3.40;;
13122;SDS011;6627;50.920;12.050;2022-11-15T13:17:31;6.20;;;2.90;;
13122;SDS011;6627;50.920;12.050;2022-11-15T13:20:20;3.07;;;2.37;;
13122;SDS011;6627;50.920;12.050;2022-11-15T13:22:52;5.63;;;2.80;;
13122;SDS011;6627;50.920;12.050;2022-11-15T13:28:42;6.83;;;3.27;;
13122;SDS011;6627;50.920;12.050;2022-11-15T13:31:17;4.50;;;3.00;;
13122;SDS011;6627;50.920;12.050;2022-11-15T13:33:55;5.63;;;2.73;;
13122;SDS011;6627;50.920;12.050;2022-11-15T13:36:28;6.50;;;3.20;;
13122;SDS011;6627;50.920;12.050;2022-11-15T13:39:00;4.33;;;2.70;;
13122;SDS011;6627;50.920;12.050;2022-11-15T13:41:33;4.50;;;2.50;;
13122;SDS011;6627;50.920;12.050;2022-11-15T13:44:03;6.23;;;3.00;;
13122;SDS011;6627;50.920;12.050;2022-11-15T13:46:44;4.03;;;2.73;;
13122;SDS011;6627;50.920;12.050;2022-11-15T13:49:12;3.80;;;2.70;;
13122;SDS011;6627;50.920;12.050;2022-11-15T13:51:41;4.80;;;2.70;;
13122;SDS011;6627;50.920;12.050;2022-11-15T13:54:16;6.87;;;2.97;;
13122;SDS011;6627;50.920;12.050;2022-11-15T13:56:51;3.93;;;2.90;;
13122;SDS011;6627;50.920;12.050;2022-11-15T13:59:24;6.03;;;3.10;;
13122;SDS011;6627;50.920;12.050;2022-11-15T14:01:54;4.43;;;2.77;;
13122;SDS011;6627;50.920;12.050;2022-11-15T14:04:27;4.43;;;2.50;;
13122;SDS011;6627;50.920;12.050;2022-11-15T14:07:01;3.30;;;2.90;;
13122;SDS011;6627;50.920;12.050;2022-11-15T14:09:31;5.40;;;2.90;;
13122;SDS011;6627;50.920;12.050;2022-11-15T14:14:57;8.97;;;2.70;;
13122;SDS011;6627;50.920;12.050;2022-11-15T14:17:34;9.43;;;3.00;;
13122;SDS011;6627;50.920;12.050;2022-11-15T14:20:19;3.00;;;2.70;;
13122;SDS011;6627;50.920;12.050;2022-11-15T14:22:54;4.07;;;2.80;;
13122;SDS011;6627;50.920;12.050;2022-11-15T14:25:23;8.90;;;4.03;;
13122;SDS011;6627;50.920;12.050;2022-11-15T14:28:11;11.13;;;5.47;;
13122;SDS011;6627;50.920;12.050;2022-11-15T14:30:57;7.10;;;4.00;;
13122;SDS011;6627;50.920;12.050;2022-11-15T14:33:27;12.50;;;5.97;;
13122;SDS011;6627;50.920;12.050;2022-11-15T14:36:05;16.30;;;13.03;;
13122;SDS011;6627;50.920;12.050;2022-11-15T14:38:38;10.53;;;9.07;;
13122;SDS011;6627;50.920;12.050;2022-11-15T14:41:10;9.53;;;6.70;;
13122;SDS011;6627;50.920;12.050;2022-11-15T14:43:48;7.73;;;4.73;;
13122;SDS011;6627;50.920;12.050;2022-11-15T14:46:16;8.77;;;4.00;;
13122;SDS011;6627;50.920;12.050;2022-11-15T14:48:45;8.00;;;3.90;;
13122;SDS011;6627;50.920;12.050;2022-11-15T14:51:12;4.50;;;3.37;;
13122;SDS011;6627;50.920;12.050;2022-11-15T14:53:43;4.93;;;3.57;;
13122;SDS011;6627;50.920;12.050;2022-11-15T14:56:13;9.30;;;4.83;;
13122;SDS011;6627;50.920;12.050;2022-11-15T14:58:42;11.40;;;7.30;;
13122;SDS011;6627;50.920;12.050;2022-11-15T15:01:12;8.67;;;5.13;;
13122;SDS011;6627;50.920;12.050;2022-11-15T15:03:46;4.60;;;4.07;;
13122;SDS011;6627;50.920;12.050;2022-11-15T15:06:13;7.47;;;4.80;;
13122;SDS011;6627;50.920;12.050;2022-11-15T15:08:41;8.07;;;4.30;;
13122;SDS011;6627;50.920;12.050;2022-11-15T15:11:08;5.53;;;4.03;;
13122;SDS011;6627;50.920;12.050;2022-11-15T15:13:41;5.70;;;4.33;;
13122;SDS011;6627;50.920;12.050;2022-11-15T15:16:09;6.40;;;3.47;;
13122;SDS011;6627;50.920;12.050;2022-11-15T15:18:38;5.83;;;4.00;;
13122;SDS011;6627;50.920;12.050;2022-11-15T15:21:18;4.43;;;3.83;;
13122;SDS011;6627;50.920;12.050;2022-11-15T15:23:49;8.13;;;4.73;;
13122;SDS011;6627;50.920;12.050;2022-11-15T15:26:17;7.10;;;4.57;;
13122;SDS011;6627;50.920;12.050;2022-11-15T15:28:45;4.80;;;4.30;;
13122;SDS011;6627;50.920;12.050;2022-11-15T15:31:15;5.97;;;4.30;;
13122;SDS011;6627;50.920;12.050;2022-11-15T15:33:44;6.40;;;4.10;;